Terminal Aerodrome Forecast
Issued by NWS Austin/San Antonio, TX

Home | Current Version | Previous Version | Text Only | Print | Product List | Glossary On
Versions: 1 2 3 4 5 6 7 8 9 10 11 12 13 14 15 16
000
FTUS44 KEWX 202300
TAFAUS
TAF
KAUS 202323Z 2100/2206 09006KT P6SM FEW030 SCT200
     FM211000 VRB03KT 6SM BR SCT030
     FM211500 08007KT P6SM FEW040 SCT050=

USA.gov is the U.S. government's official web portal to all federal, state and local government web resources and services.